createdAt,value
2018-04-02T00:01:38.404Z,18.57
2018-04-02T00:04:10.920Z,17.03
2018-04-02T00:06:43.433Z,18.53
2018-04-02T00:09:15.783Z,15.80
2018-04-02T00:11:48.577Z,17.57
2018-04-02T00:14:21.072Z,16.77
2018-04-02T00:16:53.596Z,15.30
2018-04-02T00:19:26.044Z,15.17
2018-04-02T00:21:58.448Z,19.90
2018-04-02T00:24:30.897Z,18.70
2018-04-02T00:27:03.507Z,14.47
2018-04-02T00:29:35.950Z,17.43
2018-04-02T00:32:09.024Z,18.10
2018-04-02T00:34:41.419Z,16.90
2018-04-02T00:37:13.900Z,16.67
2018-04-02T00:39:46.423Z,15.70
2018-04-02T00:42:19.050Z,20.97
2018-04-02T00:44:51.644Z,15.53
2018-04-02T00:47:25.040Z,21.07
2018-04-02T00:49:57.551Z,17.30
2018-04-02T00:52:30.956Z,16.37
2018-04-02T00:55:03.376Z,14.13
2018-04-02T00:57:37.377Z,16.63
2018-04-02T01:00:11.036Z,17.10
2018-04-02T01:02:43.428Z,17.67
2018-04-02T01:05:16.038Z,16.03
2018-04-02T01:07:48.791Z,18.80
2018-04-02T01:10:21.952Z,17.10
2018-04-02T01:12:54.468Z,16.00
2018-04-02T01:15:26.926Z,15.60
2018-04-02T01:17:59.456Z,17.43
2018-04-02T01:20:32.572Z,17.67
2018-04-02T01:23:04.964Z,16.77
2018-04-02T01:25:37.338Z,17.50
2018-04-02T01:28:10.559Z,24.80
2018-04-02T01:30:44.120Z,20.07
2018-04-02T01:33:16.627Z,19.10
2018-04-02T01:35:48.962Z,16.53
2018-04-02T01:38:21.813Z,17.70
2018-04-02T01:40:55.123Z,17.90
2018-04-02T01:43:27.533Z,18.90
2018-04-02T01:45:59.863Z,16.37
2018-04-02T01:48:33.192Z,20.60
2018-04-02T01:51:05.653Z,20.27
2018-04-02T01:53:39.179Z,18.80
2018-04-02T01:56:12.273Z,18.23
2018-04-02T01:58:44.698Z,18.43
2018-04-02T02:01:17.226Z,19.13
2018-04-02T02:03:50.551Z,19.00
2018-04-02T02:06:23.879Z,20.00
2018-04-02T02:08:57.231Z,20.37
2018-04-02T02:11:29.529Z,18.10
2018-04-02T02:14:02.168Z,20.93
2018-04-02T02:16:35.293Z,18.60
2018-04-02T02:19:07.664Z,19.60
2018-04-02T02:21:40.148Z,21.23
2018-04-02T02:24:12.692Z,18.37
2018-04-02T02:26:45.124Z,22.73
2018-04-02T02:29:19.934Z,19.27
2018-04-02T02:31:52.424Z,16.33
2018-04-02T02:34:25.149Z,20.37
2018-04-02T02:36:57.593Z,22.03
2018-04-02T02:39:30.025Z,22.87
2018-04-02T02:42:02.637Z,18.80
2018-04-02T02:44:35.225Z,21.30
2018-04-02T02:47:07.580Z,22.87
2018-04-02T02:49:40.060Z,19.80
2018-04-02T02:52:13.156Z,19.73
2018-04-02T02:54:45.688Z,18.63
2018-04-02T02:57:18.173Z,20.10
2018-04-02T02:59:51.555Z,20.40
2018-04-02T03:02:24.028Z,23.50
2018-04-02T03:04:56.616Z,19.10
2018-04-02T03:07:29.033Z,19.13
2018-04-02T03:10:01.423Z,19.87
2018-04-02T03:12:33.973Z,19.07
2018-04-02T03:15:07.291Z,21.50
2018-04-02T03:17:40.788Z,18.97
2018-04-02T03:20:14.311Z,16.67
2018-04-02T03:22:47.391Z,23.67
2018-04-02T03:25:19.849Z,17.73
2018-04-02T03:27:52.248Z,21.63
2018-04-02T03:30:24.782Z,22.50
2018-04-02T03:32:57.294Z,20.33
2018-04-02T03:35:29.791Z,17.50
2018-04-02T03:38:02.137Z,20.80
2018-04-02T03:40:34.584Z,17.93
2018-04-02T03:43:07.199Z,19.67
2018-04-02T03:45:39.732Z,19.73
2018-04-02T03:48:12.896Z,22.20
2018-04-02T03:50:46.257Z,19.53
2018-04-02T03:53:18.728Z,20.73
2018-04-02T03:55:51.188Z,17.53
2018-04-02T03:58:23.582Z,18.90
2018-04-02T04:00:56.172Z,21.73
2018-04-02T04:03:28.788Z,20.07
2018-04-02T04:06:01.530Z,21.60
2018-04-02T04:08:35.061Z,21.93
2018-04-02T04:11:07.737Z,21.57
2018-04-02T04:13:40.224Z,25.17
2018-04-02T04:16:12.639Z,22.40
2018-04-02T04:18:45.015Z,24.87
2018-04-02T04:21:17.520Z,20.83
2018-04-02T04:23:49.837Z,23.03
2018-04-02T04:26:22.204Z,21.17
2018-04-02T04:28:54.773Z,24.07
2018-04-02T04:31:27.135Z,23.83
2018-04-02T04:33:59.534Z,22.33
2018-04-02T04:36:31.921Z,19.53
2018-04-02T04:39:05.203Z,26.77
2018-04-02T04:41:38.032Z,26.93
2018-04-02T04:44:14.181Z,28.47
2018-04-02T04:46:46.891Z,29.70
2018-04-02T04:49:19.951Z,22.60
2018-04-02T04:51:53.088Z,27.80
2018-04-02T04:54:27.195Z,22.10
2018-04-02T04:57:00.505Z,28.67
2018-04-02T04:59:33.054Z,29.40
2018-04-02T05:02:13.650Z,28.40
2018-04-02T05:04:46.540Z,23.30
2018-04-02T05:07:19.336Z,23.00
2018-04-02T05:09:51.781Z,25.30
2018-04-02T05:12:25.004Z,25.23
2018-04-02T05:14:57.504Z,22.53
2018-04-02T05:17:30.088Z,23.13
2018-04-02T05:20:02.523Z,22.90
2018-04-02T05:22:34.992Z,22.33
2018-04-02T05:25:07.453Z,20.27
2018-04-02T05:27:40.505Z,22.40
2018-04-02T05:30:13.004Z,20.83
2018-04-02T05:32:45.440Z,25.10
2018-04-02T05:35:18.096Z,27.70
2018-04-02T05:37:50.520Z,19.60
2018-04-02T05:40:23.085Z,23.30
2018-04-02T05:42:55.464Z,22.60
2018-04-02T05:45:28.657Z,21.77
2018-04-02T05:48:02.135Z,21.80
2018-04-02T05:50:34.685Z,19.90
2018-04-02T05:53:07.098Z,19.70
2018-04-02T05:55:39.711Z,21.73
2018-04-02T05:58:12.124Z,24.80
2018-04-02T06:00:44.675Z,25.10
2018-04-02T06:03:17.334Z,18.00
2018-04-02T06:05:50.872Z,21.50
2018-04-02T06:08:23.996Z,25.00
2018-04-02T06:10:56.642Z,20.70
2018-04-02T06:13:30.121Z,25.30
2018-04-02T06:16:02.627Z,25.17
2018-04-02T06:18:35.009Z,22.53
2018-04-02T06:21:08.180Z,27.03
2018-04-02T06:23:41.710Z,21.03
2018-04-02T06:26:14.276Z,22.00
2018-04-02T06:28:46.907Z,25.27
2018-04-02T06:31:19.377Z,22.57
2018-04-02T06:33:51.892Z,20.80
2018-04-02T06:36:24.266Z,23.57
2018-04-02T06:38:57.710Z,16.83
2018-04-02T06:41:30.156Z,21.50
2018-04-02T06:44:02.684Z,17.30
2018-04-02T06:46:35.211Z,19.50
2018-04-02T06:49:07.533Z,14.47
2018-04-02T06:51:41.421Z,15.87
2018-04-02T06:54:14.941Z,16.43
2018-04-02T06:56:48.484Z,15.90
2018-04-02T06:59:20.937Z,17.57
2018-04-02T07:01:53.538Z,15.80
2018-04-02T07:04:26.123Z,15.00
2018-04-02T07:06:58.691Z,16.60
2018-04-02T07:09:31.395Z,17.77
2018-04-02T07:12:04.556Z,15.07
2018-04-02T07:14:37.103Z,16.43
2018-04-02T07:17:10.388Z,14.20
2018-04-02T07:19:42.964Z,14.70
2018-04-02T07:22:15.600Z,14.83
2018-04-02T07:24:48.096Z,14.53
2018-04-02T07:27:20.383Z,15.63
2018-04-02T07:29:54.116Z,13.50
2018-04-02T07:32:26.578Z,13.30
2018-04-02T07:34:59.586Z,13.20
2018-04-02T07:37:32.056Z,13.47
2018-04-02T07:40:05.731Z,13.90
2018-04-02T07:42:38.048Z,12.73
2018-04-02T07:45:12.209Z,12.50
2018-04-02T07:47:45.553Z,11.07
2018-04-02T07:50:18.425Z,11.00
2018-04-02T07:52:51.155Z,14.20
2018-04-02T07:55:23.832Z,12.67
2018-04-02T07:57:57.372Z,11.27
2018-04-02T08:00:30.652Z,13.53
2018-04-02T08:03:03.188Z,11.87
2018-04-02T08:05:35.711Z,11.70
2018-04-02T08:08:09.169Z,12.90
2018-04-02T08:10:42.504Z,11.93
2018-04-02T08:13:15.048Z,14.17
2018-04-02T08:15:48.977Z,10.43
2018-04-02T08:18:22.301Z,10.73
2018-04-02T08:20:55.491Z,10.60
2018-04-02T08:23:29.984Z,8.13
2018-04-02T08:26:03.615Z,11.57
2018-04-02T08:28:36.180Z,13.53
2018-04-02T08:31:08.716Z,14.83
2018-04-02T08:33:43.137Z,10.73
2018-04-02T08:36:16.713Z,12.37
2018-04-02T08:38:53.605Z,11.23
2018-04-02T08:41:26.106Z,12.13
2018-04-02T08:43:58.705Z,11.20
2018-04-02T08:46:31.040Z,11.90
2018-04-02T08:49:05.378Z,12.20
2018-04-02T08:51:38.063Z,10.80
2018-04-02T08:54:10.880Z,12.83
2018-04-02T08:56:43.392Z,13.50
2018-04-02T08:59:15.925Z,10.27
2018-04-02T09:01:48.355Z,9.80
2018-04-02T09:04:20.682Z,13.43
2018-04-02T09:06:53.135Z,10.03
2018-04-02T09:09:26.488Z,9.70
2018-04-02T09:11:59.457Z,8.70
2018-04-02T09:14:31.976Z,12.60
2018-04-02T09:17:05.425Z,7.20
2018-04-02T09:19:37.791Z,7.30
2018-04-02T09:22:10.524Z,13.03
2018-04-02T09:24:43.030Z,9.83
2018-04-02T09:27:16.424Z,9.57
2018-04-02T09:29:49.851Z,5.97
2018-04-02T09:32:22.273Z,9.03
2018-04-02T09:34:54.796Z,5.07
2018-04-02T09:37:31.128Z,4.80
2018-04-02T09:40:04.484Z,5.33
2018-04-02T09:42:36.817Z,7.63
2018-04-02T09:45:09.552Z,5.30
2018-04-02T09:47:42.139Z,6.73
2018-04-02T09:50:14.619Z,6.07
2018-04-02T09:52:47.768Z,5.10
2018-04-02T09:55:22.536Z,6.43
2018-04-02T09:57:55.450Z,5.27
2018-04-02T10:00:32.908Z,6.33
2018-04-02T10:03:05.385Z,4.50
2018-04-02T10:05:37.772Z,6.30
2018-04-02T10:08:10.441Z,5.03
2018-04-02T10:10:44.448Z,6.43
2018-04-02T10:13:17.160Z,4.33
2018-04-02T10:15:49.551Z,4.60
2018-04-02T10:18:23.093Z,5.60
2018-04-02T10:20:55.543Z,4.40
2018-04-02T10:23:28.166Z,4.10
2018-04-02T10:26:00.544Z,6.80
2018-04-02T10:28:33.007Z,5.97
2018-04-02T10:31:05.549Z,9.23
2018-04-02T10:33:38.004Z,8.37
2018-04-02T10:36:10.280Z,5.30
2018-04-02T10:38:43.191Z,4.07
2018-04-02T10:41:15.735Z,4.60
2018-04-02T10:43:48.207Z,5.10
2018-04-02T10:46:20.624Z,5.43
2018-04-02T10:48:53.858Z,5.50
2018-04-02T10:51:27.173Z,6.13
2018-04-02T10:53:59.962Z,5.40
2018-04-02T10:56:32.515Z,7.23
2018-04-02T10:59:04.949Z,6.70
2018-04-02T11:01:37.324Z,4.93
2018-04-02T11:04:11.141Z,4.77
2018-04-02T11:06:44.396Z,4.00
2018-04-02T11:09:18.838Z,4.27
2018-04-02T11:11:51.137Z,4.13
2018-04-02T11:14:23.668Z,5.70
2018-04-02T11:16:56.450Z,5.83
2018-04-02T11:19:28.961Z,4.23
2018-04-02T11:22:01.421Z,4.53
2018-04-02T11:24:33.932Z,3.50
2018-04-02T11:27:06.235Z,4.47
2018-04-02T11:29:39.349Z,9.93
2018-04-02T11:32:11.902Z,7.37
2018-04-02T11:34:44.316Z,11.87
2018-04-02T11:37:16.627Z,2.43
2018-04-02T11:39:49.121Z,4.87
2018-04-02T11:42:21.701Z,4.30
2018-04-02T11:44:54.796Z,2.13
2018-04-02T11:47:27.298Z,2.70
2018-04-02T11:49:59.863Z,2.60
2018-04-02T11:52:32.264Z,3.47
2018-04-02T11:55:04.916Z,3.97
2018-04-02T11:57:37.272Z,3.93
2018-04-02T12:00:10.568Z,4.30
2018-04-02T12:02:42.836Z,6.27
2018-04-02T12:05:15.336Z,5.17
2018-04-02T12:07:47.626Z,5.20
2018-04-02T12:10:20.172Z,2.90
2018-04-02T12:12:52.561Z,2.73
2018-04-02T12:15:25.676Z,3.27
2018-04-02T12:17:58.079Z,2.70
2018-04-02T12:20:30.501Z,4.40
2018-04-02T12:23:03.537Z,5.93
2018-04-02T12:25:36.697Z,3.40
2018-04-02T12:28:09.960Z,3.10
2018-04-02T12:30:42.492Z,2.90
2018-04-02T12:33:17.127Z,4.10
2018-04-02T12:35:49.959Z,3.70
2018-04-02T12:38:22.450Z,4.50
2018-04-02T12:40:54.942Z,3.60
2018-04-02T12:43:27.313Z,2.80
2018-04-02T12:45:59.932Z,3.20
2018-04-02T12:48:32.468Z,4.63
2018-04-02T12:51:05.002Z,5.37
2018-04-02T12:53:37.377Z,3.37
2018-04-02T12:56:10.700Z,3.03
2018-04-02T12:58:43.220Z,4.20
2018-04-02T13:01:15.755Z,1.43
2018-04-02T13:03:48.200Z,3.40
2018-04-02T13:06:20.940Z,1.80
2018-04-02T13:08:54.116Z,2.03
2018-04-02T13:11:26.552Z,4.40
2018-04-02T13:13:59.805Z,1.73
2018-04-02T13:16:34.057Z,4.73
2018-04-02T13:19:07.260Z,7.10
2018-04-02T13:21:39.679Z,1.90
2018-04-02T13:24:12.229Z,5.57
2018-04-02T13:26:44.625Z,3.73
2018-04-02T13:29:17.741Z,2.43
2018-04-02T13:31:50.253Z,4.17
2018-04-02T13:34:23.383Z,2.03
2018-04-02T13:36:56.119Z,4.50
2018-04-02T13:39:28.635Z,2.90
2018-04-02T13:42:01.127Z,1.77
2018-04-02T13:44:33.661Z,3.30
2018-04-02T13:47:06.068Z,2.27
2018-04-02T13:49:39.830Z,4.10
2018-04-02T13:52:13.116Z,3.43
2018-04-02T13:54:45.539Z,2.50
2018-04-02T13:57:18.089Z,1.40
2018-04-02T13:59:50.787Z,2.90
2018-04-02T14:02:23.280Z,2.90
2018-04-02T14:05:04.461Z,2.87
2018-04-02T14:07:39.108Z,10.00
2018-04-02T14:10:21.450Z,1.37
2018-04-02T14:12:57.840Z,11.13
2018-04-02T14:15:30.249Z,16.13
2018-04-02T14:18:02.845Z,11.13
2018-04-02T14:20:35.568Z,4.40
2018-04-02T14:23:09.269Z,6.80
2018-04-02T14:25:42.660Z,2.87
2018-04-02T14:28:15.251Z,4.47
2018-04-02T14:30:48.672Z,4.33
2018-04-02T14:33:21.233Z,21.63
2018-04-02T14:35:57.670Z,4.60
2018-04-02T14:38:30.185Z,2.30
2018-04-02T14:41:04.412Z,4.60
2018-04-02T14:43:39.208Z,2.50
2018-04-02T14:46:12.783Z,2.07
2018-04-02T14:48:45.842Z,2.50
2018-04-02T14:51:21.248Z,1.97
2018-04-02T14:53:53.601Z,1.73
2018-04-02T14:56:26.140Z,2.10
2018-04-02T14:58:58.590Z,3.43
2018-04-02T15:01:31.204Z,3.23
2018-04-02T15:04:03.946Z,3.80
2018-04-02T15:06:36.467Z,1.80
2018-04-02T15:09:08.836Z,2.50
2018-04-02T15:11:41.144Z,3.03
2018-04-02T15:14:13.563Z,3.47
2018-04-02T15:16:45.870Z,2.30
2018-04-02T15:19:18.361Z,2.43
2018-04-02T15:21:50.699Z,1.87
2018-04-02T15:24:24.015Z,2.93
2018-04-02T15:26:56.532Z,3.33
2018-04-02T15:29:28.896Z,2.23
2018-04-02T15:32:02.201Z,1.93
2018-04-02T15:34:34.776Z,2.83
2018-04-02T15:37:07.365Z,4.10
2018-04-02T15:39:39.913Z,5.70
2018-04-02T15:42:16.961Z,3.20
2018-04-02T15:44:49.545Z,2.13
2018-04-02T15:47:22.804Z,2.40
2018-04-02T15:49:55.282Z,2.40
2018-04-02T15:52:27.789Z,3.13
2018-04-02T15:55:00.728Z,2.80
2018-04-02T15:57:33.057Z,3.33
2018-04-02T16:00:05.638Z,2.10
2018-04-02T16:02:38.283Z,2.70
2018-04-02T16:05:10.773Z,1.73
2018-04-02T16:07:44.049Z,2.13
2018-04-02T16:10:17.205Z,7.07
2018-04-02T16:12:49.679Z,4.03
2018-04-02T16:15:22.440Z,1.30
2018-04-02T16:17:55.417Z,2.17
2018-04-02T16:20:28.671Z,2.80
2018-04-02T16:23:02.214Z,2.07
2018-04-02T16:25:34.928Z,2.43
2018-04-02T16:28:07.471Z,1.70
2018-04-02T16:30:40.000Z,1.97
2018-04-02T16:33:12.676Z,2.70
2018-04-02T16:35:45.216Z,3.17
2018-04-02T16:38:17.784Z,3.10
2018-04-02T16:40:50.185Z,2.93
2018-04-02T16:43:22.812Z,3.03
2018-04-02T16:45:55.917Z,2.83
2018-04-02T16:48:29.035Z,3.33
2018-04-02T16:51:02.426Z,5.93
2018-04-02T16:53:42.791Z,2.30
2018-04-02T16:56:15.112Z,2.50
2018-04-02T16:58:48.572Z,2.80
2018-04-02T17:01:22.230Z,4.40
2018-04-02T17:03:55.292Z,2.07
2018-04-02T17:06:28.607Z,1.50
2018-04-02T17:09:01.864Z,5.80
2018-04-02T17:11:34.316Z,3.50
2018-04-02T17:14:11.630Z,3.63
2018-04-02T17:16:44.027Z,4.47
2018-04-02T17:19:16.468Z,4.93
2018-04-02T17:21:49.709Z,6.83
2018-04-02T17:24:28.018Z,3.27
2018-04-02T17:27:09.674Z,4.47
2018-04-02T17:29:42.352Z,4.23
2018-04-02T17:32:15.864Z,7.43
2018-04-02T17:34:48.918Z,3.23
2018-04-02T17:37:21.332Z,5.10
2018-04-02T17:39:53.741Z,3.83
2018-04-02T17:42:26.272Z,2.50
2018-04-02T17:45:00.183Z,3.40
2018-04-02T17:47:32.874Z,6.93
2018-04-02T17:50:05.160Z,3.90
2018-04-02T17:52:37.664Z,3.60
2018-04-02T17:55:10.147Z,5.33
2018-04-02T17:57:42.820Z,4.70
2018-04-02T18:00:15.282Z,5.67
2018-04-02T18:02:47.799Z,3.30
2018-04-02T18:05:21.624Z,6.40
2018-04-02T18:07:55.431Z,6.97
2018-04-02T18:10:27.919Z,10.23
2018-04-02T18:13:01.513Z,7.00
2018-04-02T18:15:33.888Z,3.97
2018-04-02T18:18:06.517Z,4.43
2018-04-02T18:20:38.925Z,7.43
2018-04-02T18:23:11.497Z,7.40
2018-04-02T18:25:43.864Z,5.70
2018-04-02T18:28:16.260Z,3.97
2018-04-02T18:30:48.656Z,5.40
2018-04-02T18:33:21.212Z,3.97
2018-04-02T18:35:54.563Z,5.40
2018-04-02T18:38:27.166Z,5.13
2018-04-02T18:40:59.628Z,3.77
2018-04-02T18:43:32.272Z,6.93
2018-04-02T18:46:04.558Z,7.00
2018-04-02T18:48:37.045Z,4.17
2018-04-02T18:51:10.288Z,4.70
2018-04-02T18:53:42.763Z,3.50
2018-04-02T18:56:15.877Z,4.97
2018-04-02T18:58:48.282Z,5.33
2018-04-02T19:01:21.320Z,6.00
2018-04-02T19:03:54.684Z,7.90
2018-04-02T19:06:27.408Z,7.53
2018-04-02T19:09:09.466Z,6.70
2018-04-02T19:11:49.344Z,9.47
2018-04-02T19:14:21.792Z,9.60
2018-04-02T19:16:54.173Z,7.20
2018-04-02T19:19:28.462Z,6.50
2018-04-02T19:22:02.181Z,9.70
2018-04-02T19:24:35.284Z,8.23
2018-04-02T19:27:10.497Z,6.20
2018-04-02T19:29:43.105Z,5.20
2018-04-02T19:32:16.212Z,5.10
2018-04-02T19:35:05.888Z,6.63
2018-04-02T19:37:38.344Z,8.43
2018-04-02T19:40:10.857Z,5.37
2018-04-02T19:42:43.175Z,10.73
2018-04-02T19:45:16.121Z,8.93
2018-04-02T19:47:54.840Z,5.93
2018-04-02T19:50:27.248Z,6.20
2018-04-02T19:53:00.306Z,4.63
2018-04-02T19:55:32.808Z,7.17
2018-04-02T19:58:05.284Z,6.13
2018-04-02T20:00:37.893Z,9.27
2018-04-02T20:03:10.385Z,6.47
2018-04-02T20:05:42.757Z,6.50
2018-04-02T20:08:15.276Z,8.33
2018-04-02T20:10:48.621Z,5.77
2018-04-02T20:13:21.223Z,8.43
2018-04-02T20:16:01.092Z,8.23
2018-04-02T20:18:33.791Z,5.60
2018-04-02T20:21:09.452Z,4.40
2018-04-02T20:23:45.519Z,5.83
2018-04-02T20:26:20.915Z,3.30
2018-04-02T20:28:54.432Z,4.70
2018-04-02T20:31:27.016Z,4.80
2018-04-02T20:33:59.538Z,5.00
2018-04-02T20:36:32.026Z,3.37
2018-04-02T20:39:05.480Z,2.53
2018-04-02T20:41:38.996Z,2.20
2018-04-02T20:44:15.556Z,3.47
2018-04-02T20:46:48.289Z,4.87
2018-04-02T20:49:20.823Z,3.67
2018-04-02T20:51:53.285Z,5.47
2018-04-02T20:54:34.520Z,13.17
2018-04-02T20:57:07.186Z,10.97
2018-04-02T20:59:39.536Z,10.53
2018-04-02T21:02:12.252Z,13.47
2018-04-02T21:04:45.376Z,8.53
2018-04-02T21:07:17.838Z,3.97
2018-04-02T21:09:51.251Z,4.90
2018-04-02T21:12:24.093Z,6.70
2018-04-02T21:14:56.432Z,11.40
2018-04-02T21:17:29.055Z,9.90
2018-04-02T21:20:01.519Z,23.90
2018-04-02T21:22:34.399Z,27.23
2018-04-02T21:25:06.901Z,21.30
2018-04-02T21:27:40.052Z,22.17
2018-04-02T21:30:12.459Z,19.60
2018-04-02T21:32:44.976Z,16.73
2018-04-02T21:35:18.253Z,17.50
2018-04-02T21:37:50.796Z,14.93
2018-04-02T21:40:23.318Z,12.00
2018-04-02T21:42:56.631Z,13.17
2018-04-02T21:45:29.916Z,9.23
2018-04-02T21:48:02.512Z,5.23
2018-04-02T21:50:34.917Z,8.87
2018-04-02T21:53:07.668Z,5.70
2018-04-02T21:55:40.212Z,5.43
2018-04-02T21:58:12.861Z,4.50
2018-04-02T22:00:47.137Z,5.97
2018-04-02T22:03:20.256Z,6.70
2018-04-02T22:05:52.635Z,3.83
2018-04-02T22:08:25.012Z,4.67
2018-04-02T22:11:01.933Z,6.70
2018-04-02T22:13:34.505Z,5.10
2018-04-02T22:16:06.868Z,6.20
2018-04-02T22:18:40.171Z,8.83
2018-04-02T22:21:12.488Z,9.43
2018-04-02T22:23:44.985Z,4.77
2018-04-02T22:26:18.152Z,5.00
2018-04-02T22:28:51.536Z,4.63
2018-04-02T22:31:23.988Z,5.37
2018-04-02T22:33:57.083Z,7.70
2018-04-02T22:36:29.520Z,6.23
2018-04-02T22:39:02.053Z,8.30
2018-04-02T22:41:34.537Z,6.43
2018-04-02T22:44:06.872Z,4.40
2018-04-02T22:46:39.269Z,6.83
2018-04-02T22:49:11.988Z,5.10
2018-04-02T22:51:44.344Z,4.00
2018-04-02T22:54:16.908Z,7.10
2018-04-02T22:56:49.420Z,4.73
2018-04-02T22:59:21.788Z,4.40
2018-04-02T23:01:54.996Z,4.90
2018-04-02T23:04:27.472Z,4.43
2018-04-02T23:06:59.769Z,7.00
2018-04-02T23:09:32.245Z,5.03
2018-04-02T23:12:05.371Z,8.17
2018-04-02T23:14:37.742Z,9.83
2018-04-02T23:17:10.047Z,6.70
2018-04-02T23:19:42.344Z,5.70
2018-04-02T23:22:27.036Z,9.90
2018-04-02T23:24:59.598Z,9.27
2018-04-02T23:27:31.994Z,8.53
2018-04-02T23:30:04.377Z,5.50
2018-04-02T23:32:36.676Z,7.00
2018-04-02T23:35:09.162Z,7.53
2018-04-02T23:37:41.697Z,4.10
2018-04-02T23:40:14.372Z,5.07
2018-04-02T23:42:46.816Z,6.97
2018-04-02T23:45:19.296Z,6.43
2018-04-02T23:47:51.793Z,5.07
2018-04-02T23:50:24.240Z,6.30
2018-04-02T23:52:57.319Z,7.83
2018-04-02T23:55:30.544Z,8.60
2018-04-02T23:58:03.748Z,4.67
